Details From DAAG - Alger Houari Boumediene
To DABC - Mohamed Boudiaf Intl
Flight Number -
Tags Generated
Created
Modified
Stats Distance 168 nm / 312 km
Max Altitude 0 ft / 0 m
Waypoints 3
Social Downloads 5
Likes 0
Share VATSIM

Download

Looking for another format? Having issues loading an existing format? Contact us
Advertisement - Login to hide

Notes

Generated

Route

DAAG CSO DABC

ID Type Via Altitude Latitude Longitude Leg Dist Tot Dist Heading (true) Name
O DAAG APT - 0 ft / 0 m 36.69213˚ 3.17083˚ - 0 nm - -
CSO VOR - 0 ft / 0 m 36.29261˚ 6.60555˚ 167 nm 167 nm 97° / 99° CONSTANTINE VOR-DME
O DABC APT - 0 ft / 0 m 36.28444˚ 6.61472˚ 0 nm 168 nm 138° / 138° -

Altitude Profile

Advertisement - Login to hide

Weather


0- 5 10 15 20 25 30 35+ Temperature / ° C

Clouds and Precipitation
Forecast for 2018-05-23 12:00 UTC. Updated 5 minutes ago

Ground ~20,000 ft ~40,000 ft Winds

DAAG

Details ICAO DAAG (ALG)
Name Alger Houari Boumediene
Region Algeria
Timezone Africa/Algiers (UTC+1.0)
Stats Elevation 82 ft / 25 m (AMSL)
Location 36.697521° 3.213079°
Runways 2
Magnetic Variation 1.102° E

METAR

DAAG 230900Z 22001KT CAVOK 25/15 Q1017

Decode

TAF

TAF DAAG 230500Z 2306/2406 VRB02KT 1000 FG FEW016 BECMG 2306/2308 6000 NSW BECMG 2308/2311 04014KT BECMG 2319/2321 VRB02KT PROB30 TEMPO 2400/2406 5000 BR

Decode

Departure Runways

ID Width Length Bearing (true) Bearing (mag) Surface Threshold Offset Overrun Length
05 197 ft / 60 m 11,459 ft / 3,493 m 52.87° 51.77° Asphalt 0 ft / 0 m 0 ft / 0 m
09 148 ft / 45 m 11,442 ft / 3,487 m 91.75° 90.65° Asphalt 0 ft / 0 m 1,017 ft / 310 m
23 197 ft / 60 m 11,459 ft / 3,493 m 232.89° 231.79° Asphalt 0 ft / 0 m 0 ft / 0 m
27 148 ft / 45 m 11,442 ft / 3,487 m 271.78° 270.68° Asphalt 0 ft / 0 m 0 ft / 0 m

DABC

Details ICAO DABC (CZL)
Name MOHAMED BOUDIAF INTL
Region Algeria
Timezone Africa/Algiers (UTC+1.0)
Stats Elevation 2,265 ft / 690 m (AMSL)
Location 36.276042° 6.620278°
Runways 2
Magnetic Variation 1.774° E

METAR

DABC 230900Z 13003KT 9999 FEW030 21/14 Q1020

Decode

TAF

TAF DABC 230500Z 2306/2406 VRB02KT 9999 FEW023 SCT030 BECMG 2310/2312 24012KT PROB30 TEMPO 2312/2320 FEW026CB BECMG 2320/2322 VRB02KT PROB30 TEMPO 2400/2406 2000 BR SCT008

Decode

Destination Runways

ID Width Length Bearing (true) Bearing (mag) Surface Threshold Offset Overrun Length
14 148 ft / 45 m 7,886 ft / 2,404 m 136.03° 134.26° Asphalt 0 ft / 0 m 340 ft / 104 m
16 148 ft / 45 m 9,871 ft / 3,009 m 159.14° 157.37° Asphalt 0 ft / 0 m 400 ft / 122 m
32 148 ft / 45 m 7,886 ft / 2,404 m 316.04° 314.27° Asphalt 0 ft / 0 m 200 ft / 61 m
34 148 ft / 45 m 9,871 ft / 3,009 m 339.15° 337.38° Asphalt 0 ft / 0 m 400 ft / 122 m

Approach Navaids

Runway Type Ident Frequency Range Bearing (true) Bearing (mag) Slope Elevation
32 Localiser CT 109.30 MHz 18 nm / 33 km 316.21° 314.44° - 2,303 ft / 702 m (AMSL)
32 Glidescope CT 109.30 MHz 10 nm / 19 km 316.03° 314.26° 3.00° 2,303 ft / 702 m (AMSL)

Popular Alternatives